Royal Viking — VG4145 — position and weather

sailwx.info

Track history (hours):
 
Tides and Currents Weather Stations Pressure Air Temp Water Temp Dewpoint Dewpoint Depression Visibility Wind Speed Wind Dir Waves Ship Positions

Royal Viking

Last reported at 2018-Feb-21 17:33 UTC. Time now 2018-Feb-22 19:17 UTC.
Position N 48°57' W 125°33'.

Length 23 m.

Type: Fishing. MMSI: 316009852.

Date/timePositionNaut miles runAvg speedWind from/ knotsBaromVisibWave heightAir tempDewpointWater temp
2018-Feb-21 17:33N 48°57' W 125°33'0 0.2
2018-Feb-21 17:30N 48°57' W 125°33'1 1.6
2018-Feb-21 17:00N 48°56' W 125°32'0 0.0
2018-Feb-21 16:30N 48°56' W 125°32'1 1.8
2018-Feb-21 16:00N 48°56' W 125°31'1 2.0
2018-Feb-21 15:30N 48°56' W 125°32'0 0.0
2018-Feb-21 15:00N 48°56' W 125°32'0 0.0
2018-Feb-21 14:30N 48°56' W 125°32'0 0.0
2018-Feb-21 14:00N 48°56' W 125°32'0 0.0
2018-Feb-21 13:30N 48°56' W 125°32'0 0.0
2018-Feb-21 13:00N 48°56' W 125°32'0 0.0
2018-Feb-21 12:30N 48°56' W 125°32'0 0.0
2018-Feb-21 12:00N 48°56' W 125°32'0 0.0
2018-Feb-21 11:30N 48°56' W 125°32'0 0.0
2018-Feb-21 11:00N 48°56' W 125°32'0 0.0
2018-Feb-21 10:30N 48°56' W 125°32'0 0.0
2018-Feb-21 10:00N 48°56' W 125°32'0 0.0
2018-Feb-21 09:30N 48°56' W 125°32'0 0.0
2018-Feb-21 09:00N 48°56' W 125°32'0 0.0
2018-Feb-21 08:30N 48°56' W 125°32'0 0.0
2018-Feb-21 08:00N 48°56' W 125°32'0 0.0
2018-Feb-21 07:30N 48°56' W 125°32'0 0.0
2018-Feb-21 07:00N 48°56' W 125°32'0 0.0
2018-Feb-21 06:30N 48°56' W 125°32'0 0.0
2018-Feb-21 06:00N 48°56' W 125°32'0 0.0
2018-Feb-21 05:30N 48°56' W 125°32'0 0.0
2018-Feb-21 05:00N 48°56' W 125°32'0 0.0
2018-Feb-21 04:30N 48°56' W 125°32'0 0.0
2018-Feb-21 04:00N 48°56' W 125°32'0 0.0
2018-Feb-21 03:30N 48°56' W 125°32'0 0.0
2018-Feb-21 03:00N 48°56' W 125°32'0 0.0
2018-Feb-21 02:30N 48°56' W 125°32'0 0.0
2018-Feb-21 02:00N 48°56' W 125°32'0 0.0
2018-Feb-21 01:30N 48°56' W 125°32'0 0.0
2018-Feb-21 01:00N 48°56' W 125°32'0 0.0
2018-Feb-21 00:30N 48°56' W 125°32'0 0.0
2018-Feb-21 00:00N 48°56' W 125°32'0 0.0
2018-Feb-20 23:30N 48°56' W 125°32'0 0.0
2018-Feb-20 23:00N 48°56' W 125°32'0 0.0
2018-Feb-20 22:30N 48°56' W 125°32'0 0.0
2018-Feb-20 22:00N 48°56' W 125°32'0 0.0
2018-Feb-20 21:30N 48°56' W 125°32'0 0.0
2018-Feb-20 21:00N 48°56' W 125°32'0 0.0
2018-Feb-20 20:30N 48°56' W 125°32'1 2.4
2018-Feb-20 20:00N 48°55' W 125°31'3 6.8
2018-Feb-20 19:30N 48°54' W 125°36'4 7.4
2018-Feb-20 19:00N 48°53' W 125°42'4 7.0
2018-Feb-20 18:30N 48°53' W 125°47'4 7.3
2018-Feb-20 18:00N 48°52' W 125°52'4 7.1
2018-Feb-20 17:30N 48°51' W 125°57'4 7.3
2018-Feb-20 16:59N 48°50' W 126°03'4 7.3
2018-Feb-20 16:30N 48°49' W 126°08'3 6.9
2018-Feb-20 16:00N 48°48' W 126°13'32 2.0
2018-Feb-19 23:43N 49°11' W 126°47'2 6.9
2018-Feb-19 23:26N 49°13' W 126°47'1 1.3
2018-Feb-19 23:00N 49°13' W 126°47'0 0.5
2018-Feb-19 22:22N 49°14' W 126°47'0 0.6
2018-Feb-19 22:00N 49°14' W 126°47'2 3.1
2018-Feb-19 21:23N 49°12' W 126°49'1 2.0
2018-Feb-19 21:00N 49°13' W 126°48'0 0.8
2018-Feb-19 20:30N 49°13' W 126°48'1 0.7
2018-Feb-19 18:27N 49°12' W 126°49'0 0.2
2018-Feb-19 17:54N 49°12' W 126°49'1 0.6
2018-Feb-19 16:13N 49°11' W 126°50'1 2.9
2018-Feb-19 15:52N 49°12' W 126°49'2 5.0
2018-Feb-19 15:30N 49°14' W 126°50'4 7.6
2018-Feb-19 14:59N 49°17' W 126°54'3 5.2
2018-Feb-19 14:27N 49°14' W 126°52'32 6.8
2018-Feb-19 09:42N 49°01' W 126°07'2 7.2
2018-Feb-19 09:22N 49°01' W 126°03'3 7.2
2018-Feb-19 08:59N 48°60' W 125°59'4 7.2
2018-Feb-19 08:30N 48°59' W 125°54'4 7.2
2018-Feb-19 07:59N 48°58' W 125°49'4 7.4
2018-Feb-19 07:30N 48°57' W 125°44'4 7.3
2018-Feb-19 07:00N 48°56' W 125°38'4 7.7
2018-Feb-19 06:30N 48°55' W 125°33'1 2.6
2018-Feb-19 06:00N 48°56' W 125°31'1 2.0
2018-Feb-19 05:30N 48°56' W 125°32'0 0.0
2018-Feb-19 05:00N 48°56' W 125°32'0 0.0
2018-Feb-19 04:30N 48°56' W 125°32'0 0.0
2018-Feb-19 04:00N 48°56' W 125°32'0 0.0
2018-Feb-19 03:30N 48°56' W 125°32'0 0.0
2018-Feb-19 03:00N 48°56' W 125°32'0 0.0
2018-Feb-19 02:30N 48°56' W 125°32'0 0.0
2018-Feb-19 02:00N 48°56' W 125°32'0 0.1
2018-Feb-19 01:30N 48°56' W 125°32'0 0.0
2018-Feb-19 01:00N 48°56' W 125°32'0 0.0
2018-Feb-19 00:30N 48°56' W 125°32'0 0.0
2018-Feb-19 00:00N 48°56' W 125°32'0 0.0
2018-Feb-18 23:30N 48°56' W 125°32'0 0.0
2018-Feb-18 23:00N 48°56' W 125°32'0 0.0
2018-Feb-18 22:30N 48°56' W 125°32'0 0.0
2018-Feb-18 22:00N 48°56' W 125°32'0 0.0
2018-Feb-18 21:30N 48°56' W 125°32'0 0.0
2018-Feb-18 21:00N 48°56' W 125°32'0 0.0
2018-Feb-18 20:30N 48°56' W 125°32'0 0.0
2018-Feb-18 20:00N 48°56' W 125°32'0 0.0
2018-Feb-18 19:30N 48°56' W 125°32'0 0.0
2018-Feb-18 19:00N 48°56' W 125°32'0 0.0
2018-Feb-18 18:30N 48°56' W 125°32'0 0.0
2018-Feb-18 18:00N 48°56' W 125°32'0 0.0
2018-Feb-18 17:30N 48°56' W 125°32'0 0.0
2018-Feb-18 17:00N 48°56' W 125°32'0 0.0
2018-Feb-18 16:30N 48°56' W 125°32'0 0.0
2018-Feb-18 16:00N 48°56' W 125°32'0 0.0
2018-Feb-18 15:30N 48°56' W 125°32'0 0.0
2018-Feb-18 15:00N 48°56' W 125°32'0 0.0
2018-Feb-18 14:30N 48°56' W 125°32'0 0.0
2018-Feb-18 14:00N 48°56' W 125°32'0 0.0
2018-Feb-18 13:30N 48°56' W 125°32'0 0.0
2018-Feb-18 13:00N 48°56' W 125°32'0 0.0
2018-Feb-18 12:30N 48°56' W 125°32'0 0.0
2018-Feb-18 12:00N 48°56' W 125°32'0 0.0
2018-Feb-18 11:30N 48°56' W 125°32'0 0.0
2018-Feb-18 11:00N 48°56' W 125°32'0 0.0
2018-Feb-18 10:30N 48°56' W 125°32'0 0.0
2018-Feb-18 10:00N 48°56' W 125°32'0 0.0
2018-Feb-18 09:30N 48°56' W 125°32'0 0.0
2018-Feb-18 09:00N 48°56' W 125°32'0 0.0
2018-Feb-18 08:30N 48°56' W 125°32'0 0.0
2018-Feb-18 08:00N 48°56' W 125°32'0 0.0
2018-Feb-18 07:30N 48°56' W 125°32'0 0.0
2018-Feb-18 07:00N 48°56' W 125°32'0 0.0
2018-Feb-18 06:30N 48°56' W 125°32'0 0.0
2018-Feb-18 06:00N 48°56' W 125°32'0 0.0
2018-Feb-18 05:30N 48°56' W 125°32'0 0.0
2018-Feb-18 05:00N 48°56' W 125°32'0 0.0
2018-Feb-18 04:30N 48°56' W 125°32'0 0.0
2018-Feb-18 04:00N 48°56' W 125°32'0 0.0
2018-Feb-18 03:30N 48°56' W 125°32'0 0.0
2018-Feb-18 03:00N 48°56' W 125°32'0 0.0
2018-Feb-18 02:30N 48°56' W 125°32'0 0.0
2018-Feb-18 02:00N 48°56' W 125°32'0 0.0
2018-Feb-18 01:30N 48°56' W 125°32'0 0.0
2018-Feb-18 01:00N 48°56' W 125°32'0 0.0
2018-Feb-18 00:30N 48°56' W 125°32'0 0.0
2018-Feb-18 00:00N 48°56' W 125°32'0 0.0
2018-Feb-17 23:30N 48°56' W 125°32'0 0.0
2018-Feb-17 23:00N 48°56' W 125°32'0 0.0
2018-Feb-17 22:30N 48°56' W 125°32'0 0.0
2018-Feb-17 22:00N 48°56' W 125°32'0 0.0
2018-Feb-17 21:30N 48°56' W 125°32'0 0.0
2018-Feb-17 21:00N 48°56' W 125°32'0 0.0
2018-Feb-17 20:30N 48°56' W 125°32'0 0.0
2018-Feb-17 20:00N 48°56' W 125°32'0 0.0
2018-Feb-17 19:30N 48°56' W 125°32'0 0.0
2018-Feb-17 19:00N 48°56' W 125°32'0 0.2
2018-Feb-17 18:30N 48°56' W 125°32'0 0.0
2018-Feb-17 18:00N 48°56' W 125°32'1 1.6
2018-Feb-17 17:30N 48°57' W 125°33'0 0.0
2018-Feb-17 17:00N 48°57' W 125°33'0 0.0
2018-Feb-17 16:30N 48°57' W 125°33'0 0.0
2018-Feb-17 16:00N 48°57' W 125°33'0 0.0
2018-Feb-17 15:30N 48°57' W 125°33'0 0.0
2018-Feb-17 15:00N 48°57' W 125°33'0 0.0
2018-Feb-17 14:30N 48°57' W 125°33'0 0.0
2018-Feb-17 14:00N 48°57' W 125°33'0 0.0
2018-Feb-17 13:30N 48°57' W 125°33'0 0.0
2018-Feb-17 13:00N 48°57' W 125°33'0 0.0
2018-Feb-17 12:30N 48°57' W 125°33'0 0.0
2018-Feb-17 12:00N 48°57' W 125°33'0 0.0
2018-Feb-17 11:30N 48°57' W 125°33'0 0.0
2018-Feb-17 11:00N 48°57' W 125°33'0 0.0
2018-Feb-17 10:30N 48°57' W 125°33'0 0.0
2018-Feb-17 10:00N 48°57' W 125°33'0 0.0
2018-Feb-17 09:30N 48°57' W 125°33'0 0.0
2018-Feb-17 09:00N 48°57' W 125°33'0 0.0
2018-Feb-17 08:30N 48°57' W 125°33'0 0.0
2018-Feb-17 08:00N 48°57' W 125°33'0 0.0
2018-Feb-17 07:30N 48°57' W 125°33'0 0.0
2018-Feb-17 07:00N 48°57' W 125°33'0 0.0
2018-Feb-17 06:30N 48°57' W 125°33'0 0.0
2018-Feb-17 06:00N 48°57' W 125°33'0 0.0
2018-Feb-17 05:30N 48°57' W 125°33'0 0.0
2018-Feb-17 05:00N 48°57' W 125°33'0 0.0
2018-Feb-17 04:30N 48°57' W 125°33'0 0.0
2018-Feb-17 04:00N 48°57' W 125°33'0 0.0
2018-Feb-17 03:30N 48°57' W 125°33'0 0.0
2018-Feb-17 03:00N 48°57' W 125°33'0 0.0
2018-Feb-17 02:30N 48°57' W 125°33'0 0.1
2018-Feb-17 02:00N 48°57' W 125°33'2 4.0
2018-Feb-17 01:30N 48°55' W 125°32'4 7.4
2018-Feb-17 00:59N 48°55' W 125°38'4 7.7
2018-Feb-17 00:30N 48°55' W 125°43'4 7.8
2018-Feb-17 00:00N 48°55' W 125°49'4 7.5
2018-Feb-16 23:30N 48°55' W 125°55'4 7.1
2018-Feb-16 23:00N 48°55' W 126°00'4 7.0
2018-Feb-16 22:29N 48°55' W 126°06'2 4.5
2018-Feb-16 22:00N 48°55' W 126°09'1 1.7
2018-Feb-16 21:30N 48°56' W 126°10'2 3.1
2018-Feb-16 20:57N 48°57' W 126°11'29 1.1
2018-Feb-15 17:48N 49°13' W 126°49'1 0.8
2018-Feb-15 16:00N 49°11' W 126°50'32 5.4
2018-Feb-15 10:04N 49°01' W 126°04'2 6.5
2018-Feb-15 09:51N 49°00' W 126°01'3 6.3
2018-Feb-15 09:25N 48°60' W 125°57'3 6.1
2018-Feb-15 08:53N 48°59' W 125°53'3 6.4
2018-Feb-15 08:29N 48°58' W 125°49'3 6.4
2018-Feb-15 08:00N 48°57' W 125°45'3 6.7
2018-Feb-15 07:30N 48°56' W 125°40'3 6.8
2018-Feb-15 07:00N 48°55' W 125°35'2 4.7
2018-Feb-15 06:30N 48°55' W 125°31'1 2.7
2018-Feb-15 06:00N 48°56' W 125°32'0 0.0
2018-Feb-15 05:30N 48°56' W 125°32'0 0.0
2018-Feb-15 05:00N 48°56' W 125°32'0 0.0
2018-Feb-15 04:30N 48°56' W 125°32'0 0.0
2018-Feb-15 04:00N 48°56' W 125°32'0 0.0
2018-Feb-15 03:30N 48°56' W 125°32'0 0.1
2018-Feb-15 03:00N 48°56' W 125°32'0 0.1
2018-Feb-15 02:30N 48°56' W 125°32'0 0.1
2018-Feb-15 02:00N 48°56' W 125°32'0 0.0
2018-Feb-15 01:30N 48°56' W 125°32'1 1.3
2018-Feb-15 01:00N 48°57' W 125°33'0 0.0
2018-Feb-12 22:48N 48°57' W 125°33'0 0.0
2018-Feb-12 22:30N 48°57' W 125°33'0 0.8
2018-Feb-12 22:01N 48°57' W 125°32'0 0.7
2018-Feb-12 21:30N 48°56' W 125°32'0 0.0
2018-Feb-12 21:00N 48°56' W 125°32'0 0.0
2018-Feb-12 20:30N 48°56' W 125°32'0 0.0
2018-Feb-12 20:01N 48°56' W 125°32'0 0.0
2018-Feb-12 19:30N 48°56' W 125°32'0 0.0
2018-Feb-12 19:00N 48°56' W 125°32'0 0.0
2018-Feb-12 18:30N 48°56' W 125°32'0 0.0
2018-Feb-12 18:00N 48°56' W 125°32'0 0.0
2018-Feb-12 17:30N 48°56' W 125°32'0 0.0
2018-Feb-12 17:01N 48°56' W 125°32'0 0.0
2018-Feb-12 16:30N 48°56' W 125°32'0 0.0
2018-Feb-12 16:00N 48°56' W 125°32'0 0.1
2018-Feb-12 15:31N 48°56' W 125°32'1 1.3
2018-Feb-12 15:01N 48°57' W 125°33'0 0.0
2018-Feb-12 14:30N 48°57' W 125°33'0 0.0
2018-Feb-12 14:00N 48°57' W 125°33'0 0.0
2018-Feb-12 13:30N 48°57' W 125°33'0 0.0
2018-Feb-12 13:01N 48°57' W 125°33'0 0.0
2018-Feb-12 12:31N 48°57' W 125°33'0 0.0
2018-Feb-12 12:00N 48°57' W 125°33'0 0.0
2018-Feb-12 11:31N 48°57' W 125°33'0 0.0
2018-Feb-12 11:00N 48°57' W 125°33'0 0.0
2018-Feb-12 10:31N 48°57' W 125°33'0 0.0
2018-Feb-12 10:00N 48°57' W 125°33'0 0.0
2018-Feb-12 09:30N 48°57' W 125°33'0 0.0
2018-Feb-12 09:01N 48°57' W 125°33'0 0.0
2018-Feb-12 08:30N 48°57' W 125°33'0 0.0
2018-Feb-12 08:01N 48°57' W 125°33'0 0.0
2018-Feb-12 07:30N 48°57' W 125°33'0 0.0
2018-Feb-12 07:00N 48°57' W 125°33'0 0.0
2018-Feb-12 06:30N 48°57' W 125°33'0 0.0
2018-Feb-12 06:01N 48°57' W 125°33'0 0.0
2018-Feb-12 05:30N 48°57' W 125°33'0 0.0
2018-Feb-12 05:00N 48°57' W 125°33'0 0.0
2018-Feb-12 04:31N 48°57' W 125°33'0 0.0
2018-Feb-12 04:01N 48°57' W 125°33'0 0.0
2018-Feb-12 03:30N 48°57' W 125°33'0 0.0
2018-Feb-12 03:00N 48°57' W 125°33'0 0.0
2018-Feb-12 02:30N 48°57' W 125°33'0 0.0
2018-Feb-12 02:00N 48°57' W 125°33'0 0.0
2018-Feb-12 01:31N 48°57' W 125°33'0 0.0
2018-Feb-12 01:00N 48°57' W 125°33'0 0.0
2018-Feb-12 00:30N 48°57' W 125°33'0 0.0
2018-Feb-12 00:01N 48°57' W 125°33'1 1.1
2018-Feb-11 23:31N 48°57' W 125°32'0 0.6
2018-Feb-11 23:01N 48°56' W 125°32'0 0.0
2018-Feb-11 22:31N 48°56' W 125°32'1 2.4
2018-Feb-11 22:00N 48°55' W 125°31'3 6.1
2018-Feb-11 21:30N 48°55' W 125°36'3 5.6
2018-Feb-11 21:00N 48°55' W 125°40'4 7.2
2018-Feb-11 20:30N 48°56' W 125°45'4 7.2
2018-Feb-11 20:00N 48°56' W 125°51'3 7.0
2018-Feb-11 19:30N 48°56' W 125°56'4 7.1
2018-Feb-11 19:00N 48°57' W 126°02'4 7.0
2018-Feb-11 18:31N 48°57' W 126°07'4 7.0
2018-Feb-11 17:55N 48°57' W 126°13'  
Track history (hours):
 
Tides and Currents Weather Stations Pressure Air Temp Water Temp Dewpoint Dewpoint Depression Visibility Wind Speed Wind Dir Waves Ship Positions

Royal Viking

Last reported at 2018-Feb-21 17:33 UTC. Time now 2018-Feb-22 19:17 UTC.
Position N 48°57' W 125°33'.

Length 23 m.

Type: Fishing. MMSI: 316009852.

Date/timePositionNaut miles runAvg speedWind from/ knotsBaromVisibWave heightAir tempDewpointWater temp
2018-Feb-21 17:33N 48°57' W 125°33'0 0.2
2018-Feb-21 17:30N 48°57' W 125°33'1 1.6
2018-Feb-21 17:00N 48°56' W 125°32'0 0.0
2018-Feb-21 16:30N 48°56' W 125°32'1 1.8
2018-Feb-21 16:00N 48°56' W 125°31'1 2.0
2018-Feb-21 15:30N 48°56' W 125°32'0 0.0
2018-Feb-21 15:00N 48°56' W 125°32'0 0.0
2018-Feb-21 14:30N 48°56' W 125°32'0 0.0
2018-Feb-21 14:00N 48°56' W 125°32'0 0.0
2018-Feb-21 13:30N 48°56' W 125°32'0 0.0
2018-Feb-21 13:00N 48°56' W 125°32'0 0.0
2018-Feb-21 12:30N 48°56' W 125°32'0 0.0
2018-Feb-21 12:00N 48°56' W 125°32'0 0.0
2018-Feb-21 11:30N 48°56' W 125°32'0 0.0
2018-Feb-21 11:00N 48°56' W 125°32'0 0.0
2018-Feb-21 10:30N 48°56' W 125°32'0 0.0
2018-Feb-21 10:00N 48°56' W 125°32'0 0.0
2018-Feb-21 09:30N 48°56' W 125°32'0 0.0
2018-Feb-21 09:00N 48°56' W 125°32'0 0.0
2018-Feb-21 08:30N 48°56' W 125°32'0 0.0
2018-Feb-21 08:00N 48°56' W 125°32'0 0.0
2018-Feb-21 07:30N 48°56' W 125°32'0 0.0
2018-Feb-21 07:00N 48°56' W 125°32'0 0.0
2018-Feb-21 06:30N 48°56' W 125°32'0 0.0
2018-Feb-21 06:00N 48°56' W 125°32'0 0.0
2018-Feb-21 05:30N 48°56' W 125°32'0 0.0
2018-Feb-21 05:00N 48°56' W 125°32'0 0.0
2018-Feb-21 04:30N 48°56' W 125°32'0 0.0
2018-Feb-21 04:00N 48°56' W 125°32'0 0.0
2018-Feb-21 03:30N 48°56' W 125°32'0 0.0
2018-Feb-21 03:00N 48°56' W 125°32'0 0.0
2018-Feb-21 02:30N 48°56' W 125°32'0 0.0
2018-Feb-21 02:00N 48°56' W 125°32'0 0.0
2018-Feb-21 01:30N 48°56' W 125°32'0 0.0
2018-Feb-21 01:00N 48°56' W 125°32'0 0.0
2018-Feb-21 00:30N 48°56' W 125°32'0 0.0
2018-Feb-21 00:00N 48°56' W 125°32'0 0.0
2018-Feb-20 23:30N 48°56' W 125°32'0 0.0
2018-Feb-20 23:00N 48°56' W 125°32'0 0.0
2018-Feb-20 22:30N 48°56' W 125°32'0 0.0
2018-Feb-20 22:00N 48°56' W 125°32'0 0.0
2018-Feb-20 21:30N 48°56' W 125°32'0 0.0
2018-Feb-20 21:00N 48°56' W 125°32'0 0.0
2018-Feb-20 20:30N 48°56' W 125°32'1 2.4
2018-Feb-20 20:00N 48°55' W 125°31'3 6.8
2018-Feb-20 19:30N 48°54' W 125°36'4 7.4
2018-Feb-20 19:00N 48°53' W 125°42'4 7.0
2018-Feb-20 18:30N 48°53' W 125°47'4 7.3
2018-Feb-20 18:00N 48°52' W 125°52'4 7.1
2018-Feb-20 17:30N 48°51' W 125°57'4 7.3
2018-Feb-20 16:59N 48°50' W 126°03'4 7.3
2018-Feb-20 16:30N 48°49' W 126°08'3 6.9
2018-Feb-20 16:00N 48°48' W 126°13'32 2.0
2018-Feb-19 23:43N 49°11' W 126°47'2 6.9
2018-Feb-19 23:26N 49°13' W 126°47'1 1.3
2018-Feb-19 23:00N 49°13' W 126°47'0 0.5
2018-Feb-19 22:22N 49°14' W 126°47'0 0.6
2018-Feb-19 22:00N 49°14' W 126°47'2 3.1
2018-Feb-19 21:23N 49°12' W 126°49'1 2.0
2018-Feb-19 21:00N 49°13' W 126°48'0 0.8
2018-Feb-19 20:30N 49°13' W 126°48'1 0.7
2018-Feb-19 18:27N 49°12' W 126°49'0 0.2
2018-Feb-19 17:54N 49°12' W 126°49'1 0.6
2018-Feb-19 16:13N 49°11' W 126°50'1 2.9
2018-Feb-19 15:52N 49°12' W 126°49'2 5.0
2018-Feb-19 15:30N 49°14' W 126°50'4 7.6
2018-Feb-19 14:59N 49°17' W 126°54'3 5.2
2018-Feb-19 14:27N 49°14' W 126°52'32 6.8
2018-Feb-19 09:42N 49°01' W 126°07'2 7.2
2018-Feb-19 09:22N 49°01' W 126°03'3 7.2
2018-Feb-19 08:59N 48°60' W 125°59'4 7.2
2018-Feb-19 08:30N 48°59' W 125°54'4 7.2
2018-Feb-19 07:59N 48°58' W 125°49'4 7.4
2018-Feb-19 07:30N 48°57' W 125°44'4 7.3
2018-Feb-19 07:00N 48°56' W 125°38'4 7.7
2018-Feb-19 06:30N 48°55' W 125°33'1 2.6
2018-Feb-19 06:00N 48°56' W 125°31'1 2.0
2018-Feb-19 05:30N 48°56' W 125°32'0 0.0
2018-Feb-19 05:00N 48°56' W 125°32'0 0.0
2018-Feb-19 04:30N 48°56' W 125°32'0 0.0
2018-Feb-19 04:00N 48°56' W 125°32'0 0.0
2018-Feb-19 03:30N 48°56' W 125°32'0 0.0
2018-Feb-19 03:00N 48°56' W 125°32'0 0.0
2018-Feb-19 02:30N 48°56' W 125°32'0 0.0
2018-Feb-19 02:00N 48°56' W 125°32'0 0.1
2018-Feb-19 01:30N 48°56' W 125°32'0 0.0
2018-Feb-19 01:00N 48°56' W 125°32'0 0.0
2018-Feb-19 00:30N 48°56' W 125°32'0 0.0
2018-Feb-19 00:00N 48°56' W 125°32'0 0.0
2018-Feb-18 23:30N 48°56' W 125°32'0 0.0
2018-Feb-18 23:00N 48°56' W 125°32'0 0.0
2018-Feb-18 22:30N 48°56' W 125°32'0 0.0
2018-Feb-18 22:00N 48°56' W 125°32'0 0.0
2018-Feb-18 21:30N 48°56' W 125°32'0 0.0
2018-Feb-18 21:00N 48°56' W 125°32'0 0.0
2018-Feb-18 20:30N 48°56' W 125°32'0 0.0
2018-Feb-18 20:00N 48°56' W 125°32'0 0.0
2018-Feb-18 19:30N 48°56' W 125°32'0 0.0
2018-Feb-18 19:00N 48°56' W 125°32'0 0.0
2018-Feb-18 18:30N 48°56' W 125°32'0 0.0
2018-Feb-18 18:00N 48°56' W 125°32'0 0.0
2018-Feb-18 17:30N 48°56' W 125°32'0 0.0
2018-Feb-18 17:00N 48°56' W 125°32'0 0.0
2018-Feb-18 16:30N 48°56' W 125°32'0 0.0
2018-Feb-18 16:00N 48°56' W 125°32'0 0.0
2018-Feb-18 15:30N 48°56' W 125°32'0 0.0
2018-Feb-18 15:00N 48°56' W 125°32'0 0.0
2018-Feb-18 14:30N 48°56' W 125°32'0 0.0
2018-Feb-18 14:00N 48°56' W 125°32'0 0.0
2018-Feb-18 13:30N 48°56' W 125°32'0 0.0
2018-Feb-18 13:00N 48°56' W 125°32'0 0.0
2018-Feb-18 12:30N 48°56' W 125°32'0 0.0
2018-Feb-18 12:00N 48°56' W 125°32'0 0.0
2018-Feb-18 11:30N 48°56' W 125°32'0 0.0
2018-Feb-18 11:00N 48°56' W 125°32'0 0.0
2018-Feb-18 10:30N 48°56' W 125°32'0 0.0
2018-Feb-18 10:00N 48°56' W 125°32'0 0.0
2018-Feb-18 09:30N 48°56' W 125°32'0 0.0
2018-Feb-18 09:00N 48°56' W 125°32'0 0.0
2018-Feb-18 08:30N 48°56' W 125°32'0 0.0
2018-Feb-18 08:00N 48°56' W 125°32'0 0.0
2018-Feb-18 07:30N 48°56' W 125°32'0 0.0
2018-Feb-18 07:00N 48°56' W 125°32'0 0.0
2018-Feb-18 06:30N 48°56' W 125°32'0 0.0
2018-Feb-18 06:00N 48°56' W 125°32'0 0.0
2018-Feb-18 05:30N 48°56' W 125°32'0 0.0
2018-Feb-18 05:00N 48°56' W 125°32'0 0.0
2018-Feb-18 04:30N 48°56' W 125°32'0 0.0
2018-Feb-18 04:00N 48°56' W 125°32'0 0.0
2018-Feb-18 03:30N 48°56' W 125°32'0 0.0
2018-Feb-18 03:00N 48°56' W 125°32'0 0.0
2018-Feb-18 02:30N 48°56' W 125°32'0 0.0
2018-Feb-18 02:00N 48°56' W 125°32'0 0.0
2018-Feb-18 01:30N 48°56' W 125°32'0 0.0
2018-Feb-18 01:00N 48°56' W 125°32'0 0.0
2018-Feb-18 00:30N 48°56' W 125°32'0 0.0
2018-Feb-18 00:00N 48°56' W 125°32'0 0.0
2018-Feb-17 23:30N 48°56' W 125°32'0 0.0
2018-Feb-17 23:00N 48°56' W 125°32'0 0.0
2018-Feb-17 22:30N 48°56' W 125°32'0 0.0
2018-Feb-17 22:00N 48°56' W 125°32'0 0.0
2018-Feb-17 21:30N 48°56' W 125°32'0 0.0
2018-Feb-17 21:00N 48°56' W 125°32'0 0.0
2018-Feb-17 20:30N 48°56' W 125°32'0 0.0
2018-Feb-17 20:00N 48°56' W 125°32'0 0.0
2018-Feb-17 19:30N 48°56' W 125°32'0 0.0
2018-Feb-17 19:00N 48°56' W 125°32'0 0.2
2018-Feb-17 18:30N 48°56' W 125°32'0 0.0
2018-Feb-17 18:00N 48°56' W 125°32'1 1.6
2018-Feb-17 17:30N 48°57' W 125°33'0 0.0
2018-Feb-17 17:00N 48°57' W 125°33'0 0.0
2018-Feb-17 16:30N 48°57' W 125°33'0 0.0
2018-Feb-17 16:00N 48°57' W 125°33'0 0.0
2018-Feb-17 15:30N 48°57' W 125°33'0 0.0
2018-Feb-17 15:00N 48°57' W 125°33'0 0.0
2018-Feb-17 14:30N 48°57' W 125°33'0 0.0
2018-Feb-17 14:00N 48°57' W 125°33'0 0.0
2018-Feb-17 13:30N 48°57' W 125°33'0 0.0
2018-Feb-17 13:00N 48°57' W 125°33'0 0.0
2018-Feb-17 12:30N 48°57' W 125°33'0 0.0
2018-Feb-17 12:00N 48°57' W 125°33'0 0.0
2018-Feb-17 11:30N 48°57' W 125°33'0 0.0
2018-Feb-17 11:00N 48°57' W 125°33'0 0.0
2018-Feb-17 10:30N 48°57' W 125°33'0 0.0
2018-Feb-17 10:00N 48°57' W 125°33'0 0.0
2018-Feb-17 09:30N 48°57' W 125°33'0 0.0
2018-Feb-17 09:00N 48°57' W 125°33'0 0.0
2018-Feb-17 08:30N 48°57' W 125°33'0 0.0
2018-Feb-17 08:00N 48°57' W 125°33'0 0.0
2018-Feb-17 07:30N 48°57' W 125°33'0 0.0
2018-Feb-17 07:00N 48°57' W 125°33'0 0.0
2018-Feb-17 06:30N 48°57' W 125°33'0 0.0
2018-Feb-17 06:00N 48°57' W 125°33'0 0.0
2018-Feb-17 05:30N 48°57' W 125°33'0 0.0
2018-Feb-17 05:00N 48°57' W 125°33'0 0.0
2018-Feb-17 04:30N 48°57' W 125°33'0 0.0
2018-Feb-17 04:00N 48°57' W 125°33'0 0.0
2018-Feb-17 03:30N 48°57' W 125°33'0 0.0
2018-Feb-17 03:00N 48°57' W 125°33'0 0.0
2018-Feb-17 02:30N 48°57' W 125°33'0 0.1
2018-Feb-17 02:00N 48°57' W 125°33'2 4.0
2018-Feb-17 01:30N 48°55' W 125°32'4 7.4
2018-Feb-17 00:59N 48°55' W 125°38'4 7.7
2018-Feb-17 00:30N 48°55' W 125°43'4 7.8
2018-Feb-17 00:00N 48°55' W 125°49'4 7.5
2018-Feb-16 23:30N 48°55' W 125°55'4 7.1
2018-Feb-16 23:00N 48°55' W 126°00'4 7.0
2018-Feb-16 22:29N 48°55' W 126°06'2 4.5
2018-Feb-16 22:00N 48°55' W 126°09'1 1.7
2018-Feb-16 21:30N 48°56' W 126°10'2 3.1
2018-Feb-16 20:57N 48°57' W 126°11'29 1.1
2018-Feb-15 17:48N 49°13' W 126°49'1 0.8
2018-Feb-15 16:00N 49°11' W 126°50'32 5.4
2018-Feb-15 10:04N 49°01' W 126°04'2 6.5
2018-Feb-15 09:51N 49°00' W 126°01'3 6.3
2018-Feb-15 09:25N 48°60' W 125°57'3 6.1
2018-Feb-15 08:53N 48°59' W 125°53'3 6.4
2018-Feb-15 08:29N 48°58' W 125°49'3 6.4
2018-Feb-15 08:00N 48°57' W 125°45'3 6.7
2018-Feb-15 07:30N 48°56' W 125°40'3 6.8
2018-Feb-15 07:00N 48°55' W 125°35'2 4.7
2018-Feb-15 06:30N 48°55' W 125°31'1 2.7
2018-Feb-15 06:00N 48°56' W 125°32'0 0.0
2018-Feb-15 05:30N 48°56' W 125°32'0 0.0
2018-Feb-15 05:00N 48°56' W 125°32'0 0.0
2018-Feb-15 04:30N 48°56' W 125°32'0 0.0
2018-Feb-15 04:00N 48°56' W 125°32'0 0.0
2018-Feb-15 03:30N 48°56' W 125°32'0 0.1
2018-Feb-15 03:00N 48°56' W 125°32'0 0.1
2018-Feb-15 02:30N 48°56' W 125°32'0 0.1
2018-Feb-15 02:00N 48°56' W 125°32'0 0.0
2018-Feb-15 01:30N 48°56' W 125°32'1 1.3
2018-Feb-15 01:00N 48°57' W 125°33'0 0.0
2018-Feb-12 22:48N 48°57' W 125°33'0 0.0
2018-Feb-12 22:30N 48°57' W 125°33'0 0.8
2018-Feb-12 22:01N 48°57' W 125°32'0 0.7
2018-Feb-12 21:30N 48°56' W 125°32'0 0.0
2018-Feb-12 21:00N 48°56' W 125°32'0 0.0
2018-Feb-12 20:30N 48°56' W 125°32'0 0.0
2018-Feb-12 20:01N 48°56' W 125°32'0 0.0
2018-Feb-12 19:30N 48°56' W 125°32'0 0.0
2018-Feb-12 19:00N 48°56' W 125°32'0 0.0
2018-Feb-12 18:30N 48°56' W 125°32'0 0.0
2018-Feb-12 18:00N 48°56' W 125°32'0 0.0
2018-Feb-12 17:30N 48°56' W 125°32'0 0.0
2018-Feb-12 17:01N 48°56' W 125°32'0 0.0
2018-Feb-12 16:30N 48°56' W 125°32'0 0.0
2018-Feb-12 16:00N 48°56' W 125°32'0 0.1
2018-Feb-12 15:31N 48°56' W 125°32'1 1.3
2018-Feb-12 15:01N 48°57' W 125°33'0 0.0
2018-Feb-12 14:30N 48°57' W 125°33'0 0.0
2018-Feb-12 14:00N 48°57' W 125°33'0 0.0
2018-Feb-12 13:30N 48°57' W 125°33'0 0.0
2018-Feb-12 13:01N 48°57' W 125°33'0 0.0
2018-Feb-12 12:31N 48°57' W 125°33'0 0.0
2018-Feb-12 12:00N 48°57' W 125°33'0 0.0
2018-Feb-12 11:31N 48°57' W 125°33'0 0.0
2018-Feb-12 11:00N 48°57' W 125°33'0 0.0
2018-Feb-12 10:31N 48°57' W 125°33'0 0.0
2018-Feb-12 10:00N 48°57' W 125°33'0 0.0
2018-Feb-12 09:30N 48°57' W 125°33'0 0.0
2018-Feb-12 09:01N 48°57' W 125°33'0 0.0
2018-Feb-12 08:30N 48°57' W 125°33'0 0.0
2018-Feb-12 08:01N 48°57' W 125°33'0 0.0
2018-Feb-12 07:30N 48°57' W 125°33'0 0.0
2018-Feb-12 07:00N 48°57' W 125°33'0 0.0
2018-Feb-12 06:30N 48°57' W 125°33'0 0.0
2018-Feb-12 06:01N 48°57' W 125°33'0 0.0
2018-Feb-12 05:30N 48°57' W 125°33'0 0.0
2018-Feb-12 05:00N 48°57' W 125°33'0 0.0
2018-Feb-12 04:31N 48°57' W 125°33'0 0.0
2018-Feb-12 04:01N 48°57' W 125°33'0 0.0
2018-Feb-12 03:30N 48°57' W 125°33'0 0.0
2018-Feb-12 03:00N 48°57' W 125°33'0 0.0
2018-Feb-12 02:30N 48°57' W 125°33'0 0.0
2018-Feb-12 02:00N 48°57' W 125°33'0 0.0
2018-Feb-12 01:31N 48°57' W 125°33'0 0.0
2018-Feb-12 01:00N 48°57' W 125°33'0 0.0
2018-Feb-12 00:30N 48°57' W 125°33'0 0.0
2018-Feb-12 00:01N 48°57' W 125°33'1 1.1
2018-Feb-11 23:31N 48°57' W 125°32'0 0.6
2018-Feb-11 23:01N 48°56' W 125°32'0 0.0
2018-Feb-11 22:31N 48°56' W 125°32'1 2.4
2018-Feb-11 22:00N 48°55' W 125°31'3 6.1
2018-Feb-11 21:30N 48°55' W 125°36'3 5.6
2018-Feb-11 21:00N 48°55' W 125°40'4 7.2
2018-Feb-11 20:30N 48°56' W 125°45'4 7.2
2018-Feb-11 20:00N 48°56' W 125°51'3 7.0
2018-Feb-11 19:30N 48°56' W 125°56'4 7.1
2018-Feb-11 19:00N 48°57' W 126°02'4 7.0
2018-Feb-11 18:31N 48°57' W 126°07'4 7.0
2018-Feb-11 17:55N 48°57' W 126°13'  

Dump ship's entire track history